UAL2325 KAUS-KEWR
Flight info
| Callsign | UAL2325 |
|---|---|
| Flight time | 3h 16m |
| Altitude | 33000 |
| Route | ILEXY4 ZENZI LFK ELD MEMFS Q29 OMDUE/N0457F350 Q29 DORET J584 SLT FQM3 |
| Aircraft | B739/M-SDE2E3FGHIRWXY/LB1 |
Departure
| Time | 2026-04-20 19:32 |
|---|---|
| Airport | Austin Bergstrom International Airport (KAUS) |
Arrival
| Time | 2026-04-20 22:49 |
|---|---|
| Airport | Newark Liberty International Airport (KEWR) |
| Time | Latitude | Longitude | Altitude | Speed | Heading |
|---|---|---|---|---|---|
| 2026-04-20 19:05 | 30.20162 | -97.66952 | 491 ft | 0 kts | 24° |
| 2026-04-20 19:19 | 30.20154 | -97.66956 | 500 ft | 3 kts | 24° |
| 2026-04-20 19:19 | 30.20135 | -97.66966 | 500 ft | 3 kts | 24° |
| 2026-04-20 19:19 | 30.20118 | -97.66975 | 500 ft | 3 kts | 31° |
| 2026-04-20 19:19 | 30.20103 | -97.66989 | 500 ft | 3 kts | 56° |
| 2026-04-20 19:20 | 30.20095 | -97.67009 | 500 ft | 3 kts | 80° |
| 2026-04-20 19:20 | 30.20093 | -97.67027 | 500 ft | 1 kts | 89° |
| 2026-04-20 19:20 | 30.20093 | -97.67033 | 500 ft | 0 kts | 89° |
| 2026-04-20 19:22 | 30.20093 | -97.67032 | 500 ft | 1 kts | 89° |
| 2026-04-20 19:22 | 30.20094 | -97.66980 | 500 ft | 12 kts | 89° |
| 2026-04-20 19:22 | 30.20080 | -97.66846 | 500 ft | 20 kts | 105° |
| 2026-04-20 19:23 | 30.20057 | -97.66673 | 500 ft | 23 kts | 82° |
| 2026-04-20 19:23 | 30.20091 | -97.66491 | 500 ft | 23 kts | 88° |
| 2026-04-20 19:23 | 30.20091 | -97.66306 | 500 ft | 24 kts | 89° |
| 2026-04-20 19:23 | 30.20088 | -97.66124 | 500 ft | 17 kts | 115° |
| 2026-04-20 19:24 | 30.20013 | -97.66099 | 500 ft | 11 kts | 207° |
| 2026-04-20 19:24 | 30.19951 | -97.66130 | 500 ft | 8 kts | 176° |
| 2026-04-20 19:24 | 30.19917 | -97.66104 | 491 ft | 5 kts | 118° |
| 2026-04-20 19:24 | 30.19915 | -97.66051 | 497 ft | 9 kts | 85° |
| 2026-04-20 19:25 | 30.19914 | -97.65927 | 482 ft | 21 kts | 113° |
| 2026-04-20 19:25 | 30.19818 | -97.65890 | 482 ft | 14 kts | 191° |
| 2026-04-20 19:25 | 30.19715 | -97.65900 | 479 ft | 16 kts | 179° |
| 2026-04-20 19:25 | 30.19593 | -97.65897 | 481 ft | 19 kts | 179° |
| 2026-04-20 19:26 | 30.19457 | -97.65893 | 482 ft | 20 kts | 178° |
| 2026-04-20 19:26 | 30.19318 | -97.65890 | 485 ft | 20 kts | 179° |
| 2026-04-20 19:26 | 30.19184 | -97.65886 | 484 ft | 19 kts | 179° |
| 2026-04-20 19:26 | 30.19055 | -97.65882 | 489 ft | 18 kts | 178° |
| 2026-04-20 19:27 | 30.18930 | -97.65879 | 484 ft | 18 kts | 179° |
| 2026-04-20 19:27 | 30.18801 | -97.65876 | 484 ft | 21 kts | 179° |
| 2026-04-20 19:27 | 30.18642 | -97.65872 | 479 ft | 24 kts | 179° |
| 2026-04-20 19:27 | 30.18470 | -97.65867 | 477 ft | 25 kts | 179° |
| 2026-04-20 19:28 | 30.18297 | -97.65863 | 476 ft | 24 kts | 179° |
| 2026-04-20 19:28 | 30.18132 | -97.65859 | 478 ft | 23 kts | 179° |
| 2026-04-20 19:28 | 30.18065 | -97.65857 | 480 ft | 0 kts | 179° |
| 2026-04-20 19:29 | 30.18054 | -97.65857 | 478 ft | 4 kts | 179° |
| 2026-04-20 19:29 | 30.17999 | -97.65843 | 482 ft | 9 kts | 144° |
| 2026-04-20 19:29 | 30.17977 | -97.65773 | 477 ft | 8 kts | 81° |
| 2026-04-20 19:29 | 30.17995 | -97.65719 | 479 ft | 0 kts | 58° |
| 2026-04-20 19:30 | 30.18013 | -97.65717 | 477 ft | 5 kts | 2° |
| 2026-04-20 19:30 | 30.18024 | -97.65716 | 479 ft | 0 kts | 2° |
| 2026-04-20 19:31 | 30.18039 | -97.65722 | 476 ft | 6 kts | 341° |
| 2026-04-20 19:31 | 30.18084 | -97.65729 | 478 ft | 0 kts | 1° |
| 2026-04-20 19:31 | 30.18271 | -97.65732 | 478 ft | 64 kts | 359° |
| 2026-04-20 19:32 | 30.18964 | -97.65751 | 486 ft | 132 kts | 358° |
| 2026-04-20 19:32 | 30.19674 | -97.65773 | 482 ft | 170 kts | 358° |
| 2026-04-20 19:32 | 30.20927 | -97.65821 | 955 ft | 187 kts | 358° |
| 2026-04-20 19:32 | 30.22310 | -97.65902 | 1651 ft | 202 kts | 359° |
| 2026-04-20 19:33 | 30.23718 | -97.66044 | 2481 ft | 206 kts | 358° |
| 2026-04-20 19:33 | 30.25234 | -97.66217 | 2696 ft | 235 kts | 358° |
| 2026-04-20 19:33 | 30.27020 | -97.66412 | 2958 ft | 259 kts | 358° |
| 2026-04-20 19:33 | 30.28831 | -97.66335 | 3354 ft | 267 kts | 24° |
| 2026-04-20 19:34 | 30.30303 | -97.65132 | 4019 ft | 259 kts | 58° |
| 2026-04-20 19:34 | 30.30888 | -97.63215 | 4635 ft | 256 kts | 91° |
| 2026-04-20 19:34 | 30.30944 | -97.61151 | 5250 ft | 263 kts | 87° |
| 2026-04-20 19:34 | 30.31118 | -97.59051 | 5941 ft | 265 kts | 85° |
| 2026-04-20 19:35 | 30.31349 | -97.56867 | 6727 ft | 265 kts | 84° |
| 2026-04-20 19:35 | 30.31591 | -97.54763 | 7298 ft | 272 kts | 84° |
| 2026-04-20 19:35 | 30.31862 | -97.52521 | 7857 ft | 280 kts | 84° |
| 2026-04-20 19:35 | 30.32144 | -97.50253 | 8424 ft | 286 kts | 83° |
| 2026-04-20 19:36 | 30.32439 | -97.47913 | 9005 ft | 292 kts | 83° |
| 2026-04-20 19:36 | 30.32729 | -97.45591 | 9545 ft | 298 kts | 83° |
| 2026-04-20 19:36 | 30.33030 | -97.43193 | 10095 ft | 305 kts | 83° |
| 2026-04-20 19:36 | 30.33351 | -97.40663 | 10324 ft | 323 kts | 83° |
| 2026-04-20 19:37 | 30.33691 | -97.38017 | 10481 ft | 343 kts | 83° |
| 2026-04-20 19:37 | 30.34051 | -97.35249 | 10626 ft | 361 kts | 83° |
| 2026-04-20 19:37 | 30.34436 | -97.32300 | 10751 ft | 379 kts | 82° |
| 2026-04-20 19:37 | 30.34845 | -97.29172 | 10901 ft | 394 kts | 82° |
| 2026-04-20 19:38 | 30.35254 | -97.26042 | 11252 ft | 401 kts | 82° |
| 2026-04-20 19:38 | 30.35677 | -97.22795 | 11748 ft | 404 kts | 82° |
| 2026-04-20 19:38 | 30.35983 | -97.19551 | 12246 ft | 406 kts | 90° |
| 2026-04-20 19:38 | 30.35848 | -97.16277 | 12714 ft | 409 kts | 96° |
| 2026-04-20 19:39 | 30.35600 | -97.12975 | 13141 ft | 414 kts | 96° |
| 2026-04-20 19:39 | 30.35376 | -97.09633 | 13557 ft | 418 kts | 95° |
| 2026-04-20 19:39 | 30.35172 | -97.06265 | 14013 ft | 421 kts | 95° |
| 2026-04-20 19:39 | 30.34976 | -97.02890 | 14422 ft | 424 kts | 95° |
| 2026-04-20 19:40 | 30.34779 | -96.99482 | 14827 ft | 427 kts | 95° |
| 2026-04-20 19:40 | 30.34578 | -96.96037 | 15221 ft | 431 kts | 95° |
| 2026-04-20 19:40 | 30.34374 | -96.92565 | 15604 ft | 434 kts | 95° |
| 2026-04-20 19:40 | 30.34167 | -96.89073 | 15973 ft | 437 kts | 95° |
| 2026-04-20 19:41 | 30.33958 | -96.85556 | 16332 ft | 439 kts | 95° |
| 2026-04-20 19:41 | 30.33743 | -96.81961 | 16686 ft | 442 kts | 95° |
| 2026-04-20 19:41 | 30.33526 | -96.78398 | 17055 ft | 445 kts | 95° |
| 2026-04-20 19:41 | 30.33304 | -96.74809 | 17398 ft | 448 kts | 95° |
| 2026-04-20 19:42 | 30.33079 | -96.71207 | 17735 ft | 450 kts | 95° |
| 2026-04-20 19:42 | 30.32853 | -96.67581 | 18059 ft | 453 kts | 95° |
| 2026-04-20 19:42 | 30.32625 | -96.63937 | 18373 ft | 455 kts | 95° |
| 2026-04-20 19:42 | 30.32393 | -96.60256 | 18657 ft | 458 kts | 95° |
| 2026-04-20 19:43 | 30.32165 | -96.56627 | 18950 ft | 460 kts | 95° |
| 2026-04-20 19:43 | 30.31930 | -96.52917 | 19245 ft | 463 kts | 95° |
| 2026-04-20 19:43 | 30.31690 | -96.49140 | 19540 ft | 465 kts | 95° |
| 2026-04-20 19:43 | 30.31457 | -96.45449 | 19811 ft | 467 kts | 95° |
| 2026-04-20 19:44 | 30.31216 | -96.41645 | 20082 ft | 470 kts | 95° |
| 2026-04-20 19:44 | 30.30977 | -96.37861 | 20355 ft | 472 kts | 95° |
| 2026-04-20 19:44 | 30.30738 | -96.34119 | 20614 ft | 474 kts | 95° |
| 2026-04-20 19:44 | 30.30494 | -96.30300 | 20864 ft | 476 kts | 95° |
| 2026-04-20 19:45 | 30.30248 | -96.26466 | 21127 ft | 478 kts | 95° |
| 2026-04-20 19:45 | 30.29999 | -96.22612 | 21361 ft | 480 kts | 95° |
| 2026-04-20 19:45 | 30.29746 | -96.18701 | 21585 ft | 483 kts | 95° |
| 2026-04-20 19:45 | 30.29493 | -96.14820 | 21820 ft | 485 kts | 95° |
| 2026-04-20 19:46 | 30.29276 | -96.10917 | 22049 ft | 487 kts | 90° |
| 2026-04-20 19:46 | 30.29643 | -96.07028 | 22259 ft | 488 kts | 75° |
| 2026-04-20 19:46 | 30.30746 | -96.03326 | 22514 ft | 487 kts | 63° |
| 2026-04-20 19:46 | 30.32498 | -95.99982 | 22747 ft | 485 kts | 50° |
| 2026-04-20 19:47 | 30.34564 | -95.96896 | 23009 ft | 486 kts | 49° |
| 2026-04-20 19:47 | 30.36664 | -95.93823 | 23250 ft | 488 kts | 49° |
| 2026-04-20 19:47 | 30.38774 | -95.90730 | 23464 ft | 490 kts | 49° |
| 2026-04-20 19:47 | 30.40876 | -95.87620 | 23693 ft | 491 kts | 49° |
| 2026-04-20 19:48 | 30.42974 | -95.84481 | 23894 ft | 493 kts | 50° |
| 2026-04-20 19:48 | 30.45061 | -95.81331 | 24112 ft | 494 kts | 50° |
| 2026-04-20 19:48 | 30.47149 | -95.78161 | 24350 ft | 495 kts | 50° |
| 2026-04-20 19:48 | 30.49237 | -95.74980 | 24561 ft | 496 kts | 50° |
| 2026-04-20 19:49 | 30.51333 | -95.71783 | 24765 ft | 498 kts | 50° |
| 2026-04-20 19:49 | 30.53431 | -95.68581 | 24963 ft | 499 kts | 50° |
| 2026-04-20 19:49 | 30.55531 | -95.65376 | 25162 ft | 501 kts | 50° |
| 2026-04-20 19:49 | 30.57642 | -95.62152 | 25360 ft | 502 kts | 50° |
| 2026-04-20 19:50 | 30.59814 | -95.58833 | 25561 ft | 503 kts | 50° |
| 2026-04-20 19:50 | 30.61938 | -95.55585 | 25741 ft | 505 kts | 50° |
| 2026-04-20 19:50 | 30.64067 | -95.52329 | 25927 ft | 506 kts | 50° |
| 2026-04-20 19:50 | 30.66190 | -95.49077 | 26108 ft | 507 kts | 50° |
| 2026-04-20 19:51 | 30.68335 | -95.45791 | 26283 ft | 509 kts | 50° |
| 2026-04-20 19:51 | 30.70470 | -95.42516 | 26465 ft | 510 kts | 50° |
| 2026-04-20 19:51 | 30.72620 | -95.39215 | 26638 ft | 511 kts | 50° |
| 2026-04-20 19:51 | 30.74771 | -95.35910 | 26866 ft | 512 kts | 50° |
| 2026-04-20 19:52 | 30.76914 | -95.32613 | 27161 ft | 510 kts | 50° |
| 2026-04-20 19:52 | 30.79049 | -95.29326 | 27474 ft | 509 kts | 50° |
| 2026-04-20 19:52 | 30.81180 | -95.26043 | 27746 ft | 508 kts | 50° |
| 2026-04-20 19:52 | 30.83309 | -95.22761 | 28004 ft | 508 kts | 50° |
| 2026-04-20 19:53 | 30.85442 | -95.19471 | 28292 ft | 508 kts | 50° |
| 2026-04-20 19:53 | 30.87565 | -95.16192 | 28596 ft | 507 kts | 50° |
| 2026-04-20 19:53 | 30.89688 | -95.12912 | 28916 ft | 506 kts | 50° |
| 2026-04-20 19:53 | 30.91806 | -95.09635 | 29212 ft | 506 kts | 50° |
| 2026-04-20 19:54 | 30.93922 | -95.06360 | 29504 ft | 506 kts | 50° |
| 2026-04-20 19:54 | 30.96037 | -95.03082 | 29824 ft | 505 kts | 50° |
| 2026-04-20 19:54 | 30.98143 | -94.99817 | 30183 ft | 504 kts | 50° |
| 2026-04-20 19:54 | 31.00248 | -94.96550 | 30513 ft | 503 kts | 50° |
| 2026-04-20 19:55 | 31.02341 | -94.93298 | 30796 ft | 503 kts | 50° |
| 2026-04-20 19:55 | 31.04445 | -94.90028 | 31041 ft | 503 kts | 50° |
| 2026-04-20 19:55 | 31.06542 | -94.86766 | 31303 ft | 502 kts | 50° |
| 2026-04-20 19:55 | 31.08633 | -94.83509 | 31560 ft | 502 kts | 50° |
| 2026-04-20 19:56 | 31.10020 | -94.81348 | 31738 ft | 501 kts | 50° |
| 2026-04-20 19:56 | 31.12110 | -94.78090 | 31993 ft | 501 kts | 50° |
| 2026-04-20 19:56 | 31.14196 | -94.74834 | 32238 ft | 501 kts | 50° |
| 2026-04-20 19:56 | 31.16395 | -94.71701 | 32460 ft | 498 kts | 43° |
| 2026-04-20 19:57 | 31.18930 | -94.68977 | 32662 ft | 493 kts | 34° |
| 2026-04-20 19:57 | 31.21623 | -94.66517 | 32881 ft | 491 kts | 33° |
| 2026-04-20 19:57 | 31.24343 | -94.64085 | 33125 ft | 491 kts | 33° |
| 2026-04-20 19:57 | 31.27051 | -94.61670 | 33320 ft | 490 kts | 33° |
| 2026-04-20 19:58 | 31.29766 | -94.59233 | 33302 ft | 492 kts | 33° |
| 2026-04-20 19:58 | 31.35168 | -94.54322 | 33326 ft | 491 kts | 34° |
| 2026-04-20 19:59 | 31.40534 | -94.49390 | 33340 ft | 490 kts | 34° |
| 2026-04-20 19:59 | 31.45876 | -94.44462 | 33346 ft | 489 kts | 34° |
| 2026-04-20 20:00 | 31.51219 | -94.39529 | 33346 ft | 488 kts | 34° |
| 2026-04-20 20:00 | 31.56550 | -94.34603 | 33346 ft | 488 kts | 34° |
| 2026-04-20 20:01 | 31.61893 | -94.29659 | 33342 ft | 489 kts | 34° |
| 2026-04-20 20:01 | 31.67237 | -94.24707 | 33351 ft | 490 kts | 34° |
| 2026-04-20 20:02 | 31.72590 | -94.19739 | 33343 ft | 492 kts | 34° |
| 2026-04-20 20:02 | 31.77970 | -94.14738 | 33351 ft | 493 kts | 34° |
| 2026-04-20 20:03 | 31.83356 | -94.09724 | 33345 ft | 495 kts | 34° |
| 2026-04-20 20:03 | 31.88764 | -94.04682 | 33344 ft | 497 kts | 34° |
| 2026-04-20 20:04 | 31.94183 | -93.99620 | 33336 ft | 498 kts | 34° |
| 2026-04-20 20:04 | 31.99618 | -93.94536 | 33343 ft | 498 kts | 34° |
| 2026-04-20 20:05 | 32.05197 | -93.89309 | 33340 ft | 499 kts | 34° |
| 2026-04-20 20:05 | 32.10632 | -93.84210 | 33338 ft | 500 kts | 34° |
| 2026-04-20 20:06 | 32.16071 | -93.79098 | 33329 ft | 500 kts | 34° |
| 2026-04-20 20:06 | 32.21541 | -93.73949 | 33328 ft | 499 kts | 34° |
| 2026-04-20 20:07 | 32.27002 | -93.68801 | 33327 ft | 499 kts | 34° |
| 2026-04-20 20:07 | 32.27881 | -93.67971 | 33337 ft | 499 kts | 34° |
| 2026-04-20 20:08 | 32.31856 | -93.64218 | 33325 ft | 499 kts | 34° |
| 2026-04-20 20:08 | 32.37270 | -93.59098 | 33317 ft | 498 kts | 34° |
| 2026-04-20 20:09 | 32.42682 | -93.53972 | 33322 ft | 498 kts | 34° |
| 2026-04-20 20:09 | 32.48088 | -93.48844 | 33334 ft | 498 kts | 34° |
| 2026-04-20 20:10 | 32.53475 | -93.43727 | 33348 ft | 497 kts | 34° |
| 2026-04-20 20:10 | 32.58911 | -93.38554 | 33335 ft | 497 kts | 34° |
| 2026-04-20 20:11 | 32.64282 | -93.33434 | 33334 ft | 497 kts | 34° |
| 2026-04-20 20:11 | 32.69704 | -93.28258 | 33333 ft | 497 kts | 34° |
| 2026-04-20 20:12 | 32.75142 | -93.23059 | 33336 ft | 496 kts | 34° |
| 2026-04-20 20:12 | 32.80515 | -93.17913 | 33336 ft | 496 kts | 34° |
| 2026-04-20 20:13 | 32.88566 | -93.10186 | 33332 ft | 496 kts | 34° |
| 2026-04-20 20:13 | 32.93936 | -93.05022 | 33335 ft | 495 kts | 34° |
| 2026-04-20 20:14 | 32.99299 | -92.99857 | 33336 ft | 495 kts | 34° |
| 2026-04-20 20:14 | 33.04652 | -92.94693 | 33337 ft | 495 kts | 34° |
| 2026-04-20 20:15 | 33.10005 | -92.89520 | 33332 ft | 495 kts | 33° |
| 2026-04-20 20:15 | 33.15360 | -92.84337 | 33332 ft | 495 kts | 33° |
| 2026-04-20 20:16 | 33.20709 | -92.79151 | 33334 ft | 495 kts | 33° |
| 2026-04-20 20:16 | 33.25121 | -92.74799 | 33332 ft | 498 kts | 37° |
| 2026-04-20 20:17 | 33.29729 | -92.68493 | 33341 ft | 505 kts | 47° |
| 2026-04-20 20:17 | 33.34020 | -92.61830 | 33341 ft | 506 kts | 47° |
| 2026-04-20 20:18 | 33.38324 | -92.55154 | 33331 ft | 506 kts | 47° |
| 2026-04-20 20:18 | 33.42658 | -92.48521 | 33344 ft | 505 kts | 46° |
| 2026-04-20 20:19 | 33.47093 | -92.41767 | 33338 ft | 505 kts | 46° |
| 2026-04-20 20:19 | 33.51430 | -92.35158 | 33338 ft | 504 kts | 46° |
| 2026-04-20 20:20 | 33.55760 | -92.28542 | 33332 ft | 503 kts | 46° |
| 2026-04-20 20:20 | 33.60075 | -92.21932 | 33337 ft | 502 kts | 46° |
| 2026-04-20 20:21 | 33.64371 | -92.15339 | 33335 ft | 501 kts | 46° |
| 2026-04-20 20:21 | 33.68661 | -92.08743 | 33338 ft | 499 kts | 46° |
| 2026-04-20 20:22 | 33.72938 | -92.02156 | 33338 ft | 498 kts | 46° |
| 2026-04-20 20:22 | 33.77248 | -91.95507 | 33333 ft | 497 kts | 46° |
| 2026-04-20 20:23 | 33.81492 | -91.88947 | 33343 ft | 496 kts | 46° |
| 2026-04-20 20:23 | 33.85725 | -91.82392 | 33332 ft | 496 kts | 46° |
| 2026-04-20 20:24 | 33.89989 | -91.75779 | 33335 ft | 496 kts | 47° |
| 2026-04-20 20:24 | 33.94221 | -91.69202 | 33335 ft | 497 kts | 47° |
| 2026-04-20 20:25 | 33.98448 | -91.62620 | 33338 ft | 497 kts | 47° |
| 2026-04-20 20:25 | 34.02682 | -91.56017 | 33342 ft | 498 kts | 46° |
| 2026-04-20 20:26 | 34.06950 | -91.49347 | 33346 ft | 499 kts | 46° |
| 2026-04-20 20:26 | 34.11168 | -91.42744 | 33350 ft | 500 kts | 46° |
| 2026-04-20 20:27 | 34.15418 | -91.36077 | 33352 ft | 501 kts | 46° |
| 2026-04-20 20:27 | 34.19677 | -91.29384 | 33350 ft | 502 kts | 46° |
| 2026-04-20 20:28 | 34.23934 | -91.22682 | 33347 ft | 503 kts | 46° |
| 2026-04-20 20:28 | 34.28193 | -91.15965 | 33344 ft | 503 kts | 46° |
| 2026-04-20 20:29 | 34.32457 | -91.09225 | 33342 ft | 503 kts | 46° |
| 2026-04-20 20:29 | 34.36711 | -91.02491 | 33338 ft | 503 kts | 46° |
| 2026-04-20 20:30 | 34.40954 | -90.95760 | 33338 ft | 502 kts | 46° |
| 2026-04-20 20:30 | 34.45189 | -90.89028 | 33334 ft | 501 kts | 46° |
| 2026-04-20 20:31 | 34.49409 | -90.82308 | 33337 ft | 500 kts | 46° |
| 2026-04-20 20:31 | 34.53607 | -90.75611 | 33332 ft | 498 kts | 46° |
| 2026-04-20 20:32 | 34.57787 | -90.68930 | 33329 ft | 497 kts | 46° |
| 2026-04-20 20:32 | 34.61960 | -90.62250 | 33331 ft | 495 kts | 46° |
| 2026-04-20 20:33 | 34.66118 | -90.55578 | 33331 ft | 494 kts | 46° |
| 2026-04-20 20:33 | 34.70294 | -90.48869 | 33330 ft | 493 kts | 46° |
| 2026-04-20 20:34 | 34.74429 | -90.42209 | 33333 ft | 493 kts | 46° |
| 2026-04-20 20:34 | 34.78557 | -90.35551 | 33335 ft | 493 kts | 46° |
| 2026-04-20 20:35 | 34.82683 | -90.28883 | 33336 ft | 493 kts | 46° |
| 2026-04-20 20:35 | 34.86804 | -90.22209 | 33328 ft | 493 kts | 46° |
| 2026-04-20 20:36 | 34.90931 | -90.15512 | 33319 ft | 494 kts | 46° |
| 2026-04-20 20:36 | 34.95057 | -90.08803 | 33325 ft | 495 kts | 46° |
| 2026-04-20 20:37 | 34.99210 | -90.02041 | 33326 ft | 495 kts | 46° |
| 2026-04-20 20:37 | 35.03836 | -89.96012 | 33322 ft | 477 kts | 29° |
| 2026-04-20 20:38 | 35.08273 | -89.92064 | 33330 ft | 474 kts | 27° |
| 2026-04-20 20:38 | 35.13648 | -89.87378 | 33326 ft | 475 kts | 27° |
| 2026-04-20 20:39 | 35.19004 | -89.82636 | 33320 ft | 475 kts | 28° |
| 2026-04-20 20:39 | 35.24338 | -89.77856 | 33321 ft | 475 kts | 28° |
| 2026-04-20 20:40 | 35.29700 | -89.73025 | 33315 ft | 475 kts | 28° |
| 2026-04-20 20:40 | 35.35011 | -89.68234 | 33315 ft | 473 kts | 28° |
| 2026-04-20 20:41 | 35.40309 | -89.63449 | 33323 ft | 472 kts | 28° |
| 2026-04-20 20:41 | 35.45583 | -89.58680 | 33322 ft | 470 kts | 28° |
| 2026-04-20 20:42 | 35.50840 | -89.53918 | 33326 ft | 468 kts | 28° |
| 2026-04-20 20:42 | 35.56035 | -89.49204 | 33333 ft | 466 kts | 28° |
| 2026-04-20 20:43 | 35.61273 | -89.44444 | 33330 ft | 465 kts | 28° |
| 2026-04-20 20:43 | 35.66465 | -89.39718 | 33338 ft | 463 kts | 28° |
| 2026-04-20 20:44 | 35.71644 | -89.34997 | 33338 ft | 463 kts | 28° |
| 2026-04-20 20:44 | 35.76813 | -89.30276 | 33339 ft | 462 kts | 28° |
| 2026-04-20 20:45 | 35.82006 | -89.25525 | 33344 ft | 461 kts | 28° |
| 2026-04-20 20:45 | 35.87151 | -89.20811 | 33341 ft | 461 kts | 28° |
| 2026-04-20 20:46 | 35.92335 | -89.16052 | 33343 ft | 460 kts | 28° |
| 2026-04-20 20:46 | 35.97467 | -89.11333 | 33340 ft | 460 kts | 28° |
| 2026-04-20 20:47 | 36.02591 | -89.06614 | 33341 ft | 459 kts | 28° |
| 2026-04-20 20:47 | 36.07712 | -89.01889 | 33326 ft | 459 kts | 28° |
| 2026-04-20 20:48 | 36.12817 | -88.97172 | 33318 ft | 458 kts | 28° |
| 2026-04-20 20:48 | 36.17915 | -88.92450 | 33313 ft | 457 kts | 28° |
| 2026-04-20 20:49 | 36.22992 | -88.87734 | 33305 ft | 455 kts | 28° |
| 2026-04-20 20:49 | 36.28051 | -88.83027 | 33303 ft | 454 kts | 28° |
| 2026-04-20 20:50 | 36.33088 | -88.78334 | 33305 ft | 452 kts | 28° |
| 2026-04-20 20:50 | 36.38109 | -88.73648 | 33310 ft | 450 kts | 28° |
| 2026-04-20 20:51 | 36.43108 | -88.68975 | 33308 ft | 449 kts | 28° |
| 2026-04-20 20:51 | 36.48090 | -88.64310 | 33317 ft | 448 kts | 28° |
| 2026-04-20 20:52 | 36.53057 | -88.59652 | 33329 ft | 447 kts | 28° |
| 2026-04-20 20:52 | 36.58020 | -88.54990 | 33322 ft | 446 kts | 28° |
| 2026-04-20 20:53 | 36.62966 | -88.50336 | 33331 ft | 445 kts | 28° |
| 2026-04-20 20:53 | 36.67894 | -88.45691 | 33326 ft | 444 kts | 28° |
| 2026-04-20 20:54 | 36.72819 | -88.41042 | 33333 ft | 444 kts | 28° |
| 2026-04-20 20:54 | 36.77741 | -88.36388 | 33330 ft | 444 kts | 29° |
| 2026-04-20 20:55 | 36.82660 | -88.31729 | 33332 ft | 444 kts | 29° |
| 2026-04-20 20:55 | 36.87581 | -88.27060 | 33329 ft | 444 kts | 29° |
| 2026-04-20 20:56 | 36.92487 | -88.22397 | 33326 ft | 443 kts | 29° |
| 2026-04-20 20:56 | 36.97392 | -88.17727 | 33322 ft | 443 kts | 29° |
| 2026-04-20 20:57 | 37.02292 | -88.13054 | 33319 ft | 442 kts | 29° |
| 2026-04-20 20:57 | 37.07181 | -88.08385 | 33332 ft | 441 kts | 29° |
| 2026-04-20 20:58 | 37.12096 | -88.03682 | 33322 ft | 441 kts | 29° |
| 2026-04-20 20:58 | 37.16998 | -87.98983 | 33328 ft | 440 kts | 29° |
| 2026-04-20 20:59 | 37.21926 | -87.94252 | 33318 ft | 439 kts | 29° |
| 2026-04-20 20:59 | 37.26768 | -87.89596 | 33327 ft | 438 kts | 29° |
| 2026-04-20 21:00 | 37.31601 | -87.84941 | 33329 ft | 437 kts | 29° |
| 2026-04-20 21:00 | 37.36179 | -87.79829 | 33344 ft | 444 kts | 37° |
| 2026-04-20 21:01 | 37.40473 | -87.74215 | 33339 ft | 445 kts | 38° |
| 2026-04-20 21:01 | 37.44060 | -87.69484 | 33341 ft | 445 kts | 38° |
| 2026-04-20 21:02 | 37.48352 | -87.63871 | 33340 ft | 445 kts | 38° |
| 2026-04-20 21:02 | 37.52660 | -87.58272 | 33338 ft | 445 kts | 38° |
| 2026-04-20 21:03 | 37.57004 | -87.52629 | 33336 ft | 445 kts | 38° |
| 2026-04-20 21:03 | 37.61336 | -87.46993 | 33342 ft | 446 kts | 38° |
| 2026-04-20 21:04 | 37.65679 | -87.41330 | 33334 ft | 445 kts | 38° |
| 2026-04-20 21:04 | 37.69989 | -87.35700 | 33342 ft | 446 kts | 38° |
| 2026-04-20 21:05 | 37.74305 | -87.30054 | 33343 ft | 446 kts | 38° |
| 2026-04-20 21:05 | 37.78739 | -87.24241 | 33334 ft | 447 kts | 38° |
| 2026-04-20 21:06 | 37.83108 | -87.18502 | 33337 ft | 447 kts | 38° |
| 2026-04-20 21:06 | 37.87453 | -87.12785 | 33339 ft | 447 kts | 38° |
| 2026-04-20 21:07 | 37.90310 | -87.09020 | 33342 ft | 447 kts | 38° |
| 2026-04-20 21:07 | 37.92066 | -87.06703 | 33339 ft | 447 kts | 38° |
| 2026-04-20 21:08 | 37.96369 | -87.01020 | 33338 ft | 447 kts | 38° |
| 2026-04-20 21:08 | 38.00674 | -86.95324 | 33340 ft | 447 kts | 38° |
| 2026-04-20 21:09 | 38.04967 | -86.89633 | 33338 ft | 447 kts | 38° |
| 2026-04-20 21:09 | 38.09268 | -86.83921 | 33334 ft | 446 kts | 38° |
| 2026-04-20 21:10 | 38.13552 | -86.78222 | 33338 ft | 446 kts | 38° |
| 2026-04-20 21:10 | 38.17811 | -86.72545 | 33340 ft | 445 kts | 38° |
| 2026-04-20 21:11 | 38.22083 | -86.66842 | 33331 ft | 445 kts | 38° |
| 2026-04-20 21:11 | 38.26351 | -86.61134 | 33349 ft | 445 kts | 38° |
| 2026-04-20 21:12 | 38.30642 | -86.55384 | 33336 ft | 445 kts | 38° |
| 2026-04-20 21:12 | 38.34870 | -86.49708 | 33349 ft | 444 kts | 38° |
| 2026-04-20 21:13 | 38.39121 | -86.43990 | 33341 ft | 444 kts | 38° |
| 2026-04-20 21:13 | 38.43373 | -86.38262 | 33343 ft | 444 kts | 38° |
| 2026-04-20 21:14 | 38.47679 | -86.32450 | 33345 ft | 444 kts | 38° |
| 2026-04-20 21:14 | 38.51926 | -86.26705 | 33345 ft | 444 kts | 38° |
| 2026-04-20 21:15 | 38.56170 | -86.20955 | 33348 ft | 445 kts | 38° |
| 2026-04-20 21:15 | 38.60413 | -86.15196 | 33347 ft | 445 kts | 38° |
| 2026-04-20 21:16 | 38.64678 | -86.09396 | 33348 ft | 445 kts | 38° |
| 2026-04-20 21:16 | 38.68910 | -86.03630 | 33348 ft | 445 kts | 38° |
| 2026-04-20 21:17 | 38.73154 | -85.97838 | 33358 ft | 445 kts | 38° |
| 2026-04-20 21:17 | 38.77364 | -85.92080 | 33341 ft | 445 kts | 38° |
| 2026-04-20 21:18 | 38.80934 | -85.87190 | 33354 ft | 444 kts | 38° |
| 2026-04-20 21:18 | 38.85163 | -85.81386 | 33358 ft | 445 kts | 38° |
| 2026-04-20 21:19 | 38.89382 | -85.75587 | 33358 ft | 445 kts | 38° |
| 2026-04-20 21:20 | 38.95721 | -85.66852 | 33365 ft | 445 kts | 38° |
| 2026-04-20 21:20 | 38.99947 | -85.61016 | 33360 ft | 445 kts | 38° |
| 2026-04-20 21:21 | 39.04165 | -85.55178 | 33359 ft | 445 kts | 38° |
| 2026-04-20 21:21 | 39.08361 | -85.49361 | 33360 ft | 446 kts | 38° |
| 2026-04-20 21:22 | 39.12575 | -85.43507 | 33356 ft | 446 kts | 38° |
| 2026-04-20 21:22 | 39.16787 | -85.37646 | 33359 ft | 446 kts | 38° |
| 2026-04-20 21:23 | 39.21114 | -85.31611 | 33355 ft | 446 kts | 38° |
| 2026-04-20 21:23 | 39.25333 | -85.25717 | 33343 ft | 446 kts | 38° |
| 2026-04-20 21:24 | 39.29518 | -85.19860 | 33344 ft | 447 kts | 38° |
| 2026-04-20 21:24 | 39.33731 | -85.13952 | 33347 ft | 447 kts | 38° |
| 2026-04-20 21:25 | 39.37940 | -85.08037 | 33348 ft | 447 kts | 38° |
| 2026-04-20 21:25 | 39.42152 | -85.02108 | 33363 ft | 447 kts | 38° |
| 2026-04-20 21:26 | 39.46369 | -84.96160 | 33362 ft | 447 kts | 38° |
| 2026-04-20 21:26 | 39.50572 | -84.90220 | 33358 ft | 447 kts | 38° |
| 2026-04-20 21:27 | 39.54773 | -84.84272 | 33352 ft | 447 kts | 38° |
| 2026-04-20 21:27 | 39.58964 | -84.78325 | 33354 ft | 447 kts | 38° |
| 2026-04-20 21:28 | 39.63152 | -84.72372 | 33353 ft | 446 kts | 38° |
| 2026-04-20 21:28 | 39.67146 | -84.66683 | 33369 ft | 445 kts | 38° |
| 2026-04-20 21:29 | 39.71335 | -84.60706 | 33378 ft | 445 kts | 38° |
| 2026-04-20 21:29 | 39.75503 | -84.54748 | 33373 ft | 445 kts | 38° |
| 2026-04-20 21:30 | 39.79628 | -84.48839 | 33382 ft | 444 kts | 38° |
| 2026-04-20 21:30 | 39.83805 | -84.42843 | 33378 ft | 444 kts | 38° |
| 2026-04-20 21:31 | 39.87917 | -84.36930 | 33373 ft | 443 kts | 38° |
| 2026-04-20 21:31 | 39.92050 | -84.30983 | 33375 ft | 442 kts | 37° |
| 2026-04-20 21:32 | 39.96369 | -84.25330 | 33375 ft | 438 kts | 34° |
| 2026-04-20 21:32 | 40.00809 | -84.19816 | 33377 ft | 437 kts | 34° |
| 2026-04-20 21:33 | 40.05199 | -84.14324 | 33376 ft | 438 kts | 34° |
| 2026-04-20 21:33 | 40.09577 | -84.08784 | 33381 ft | 438 kts | 34° |
| 2026-04-20 21:34 | 40.13953 | -84.03216 | 33387 ft | 438 kts | 34° |
| 2026-04-20 21:34 | 40.18320 | -83.97648 | 33372 ft | 439 kts | 34° |
| 2026-04-20 21:35 | 40.22681 | -83.92078 | 33378 ft | 439 kts | 34° |
| 2026-04-20 21:35 | 40.27049 | -83.86490 | 33379 ft | 439 kts | 34° |
| 2026-04-20 21:36 | 40.31407 | -83.80902 | 33374 ft | 439 kts | 34° |
| 2026-04-20 21:36 | 40.35766 | -83.75304 | 33374 ft | 438 kts | 34° |
| 2026-04-20 21:37 | 40.40151 | -83.69661 | 33376 ft | 438 kts | 34° |
| 2026-04-20 21:37 | 40.44470 | -83.64091 | 33373 ft | 438 kts | 34° |
| 2026-04-20 21:38 | 40.48810 | -83.58486 | 33380 ft | 437 kts | 34° |
| 2026-04-20 21:38 | 40.53137 | -83.52884 | 33390 ft | 437 kts | 34° |
| 2026-04-20 21:39 | 40.57494 | -83.47230 | 33388 ft | 436 kts | 34° |
| 2026-04-20 21:39 | 40.61811 | -83.41617 | 33386 ft | 436 kts | 34° |
| 2026-04-20 21:40 | 40.66126 | -83.35998 | 33382 ft | 436 kts | 34° |
| 2026-04-20 21:40 | 40.70397 | -83.30318 | 33371 ft | 441 kts | 39° |
| 2026-04-20 21:41 | 40.74250 | -83.23937 | 33380 ft | 446 kts | 42° |
| 2026-04-20 21:41 | 40.77979 | -83.17452 | 33381 ft | 446 kts | 42° |
| 2026-04-20 21:42 | 40.81122 | -83.12029 | 33383 ft | 446 kts | 42° |
| 2026-04-20 21:42 | 40.85229 | -83.05012 | 33393 ft | 446 kts | 42° |
| 2026-04-20 21:43 | 40.88842 | -82.98850 | 33390 ft | 446 kts | 42° |
| 2026-04-20 21:43 | 40.92672 | -82.92304 | 33398 ft | 447 kts | 42° |
| 2026-04-20 21:44 | 40.96498 | -82.85750 | 33394 ft | 447 kts | 42° |
| 2026-04-20 21:44 | 41.00296 | -82.79227 | 33390 ft | 447 kts | 42° |
| 2026-04-20 21:45 | 41.04085 | -82.72706 | 33387 ft | 446 kts | 42° |
| 2026-04-20 21:45 | 41.07872 | -82.66173 | 33393 ft | 446 kts | 42° |
| 2026-04-20 21:46 | 41.11648 | -82.59649 | 33400 ft | 446 kts | 42° |
| 2026-04-20 21:46 | 41.15258 | -82.52892 | 33395 ft | 457 kts | 50° |
| 2026-04-20 21:47 | 41.18266 | -82.45403 | 33409 ft | 460 kts | 52° |
| 2026-04-20 21:47 | 41.21217 | -82.37871 | 33416 ft | 459 kts | 52° |
| 2026-04-20 21:48 | 41.24211 | -82.30371 | 33394 ft | 458 kts | 51° |
| 2026-04-20 21:48 | 41.27215 | -82.22900 | 33400 ft | 458 kts | 51° |
| 2026-04-20 21:49 | 41.30211 | -82.15433 | 33401 ft | 458 kts | 51° |
| 2026-04-20 21:49 | 41.33203 | -82.07954 | 33404 ft | 457 kts | 51° |
| 2026-04-20 21:50 | 41.35998 | -82.00288 | 33403 ft | 464 kts | 56° |
| 2026-04-20 21:50 | 41.38483 | -81.92377 | 33393 ft | 466 kts | 57° |
| 2026-04-20 21:51 | 41.40964 | -81.84403 | 33393 ft | 465 kts | 57° |
| 2026-04-20 21:51 | 41.43471 | -81.76464 | 33395 ft | 464 kts | 57° |
| 2026-04-20 21:52 | 41.45989 | -81.68530 | 33423 ft | 464 kts | 57° |
| 2026-04-20 21:52 | 41.48502 | -81.60589 | 33423 ft | 464 kts | 57° |
| 2026-04-20 21:53 | 41.51007 | -81.52644 | 33421 ft | 465 kts | 57° |
| 2026-04-20 21:53 | 41.53511 | -81.44677 | 33415 ft | 464 kts | 57° |
| 2026-04-20 21:54 | 41.56003 | -81.36732 | 33420 ft | 464 kts | 57° |
| 2026-04-20 21:54 | 41.58481 | -81.28827 | 33419 ft | 463 kts | 57° |
| 2026-04-20 21:55 | 41.60964 | -81.20883 | 33421 ft | 463 kts | 57° |
| 2026-04-20 21:55 | 41.63440 | -81.12939 | 33419 ft | 462 kts | 57° |
| 2026-04-20 21:56 | 41.65908 | -81.04992 | 33422 ft | 462 kts | 57° |
| 2026-04-20 21:56 | 41.68367 | -80.97052 | 33411 ft | 461 kts | 57° |
| 2026-04-20 21:57 | 41.70816 | -80.89119 | 33402 ft | 461 kts | 57° |
| 2026-04-20 21:57 | 41.73291 | -80.81078 | 33403 ft | 461 kts | 57° |
| 2026-04-20 21:58 | 41.75743 | -80.73090 | 33402 ft | 461 kts | 57° |
| 2026-04-20 21:58 | 41.78186 | -80.65107 | 33403 ft | 462 kts | 58° |
| 2026-04-20 21:59 | 41.79604 | -80.57917 | 33398 ft | 483 kts | 74° |
| 2026-04-20 21:59 | 41.79766 | -80.53201 | 33392 ft | 496 kts | 84° |
| 2026-04-20 21:59 | 41.79412 | -80.48535 | 33409 ft | 503 kts | 89° |
| 2026-04-20 22:00 | 41.78392 | -80.39258 | 33377 ft | 505 kts | 90° |
| 2026-04-20 22:00 | 41.77340 | -80.29876 | 33365 ft | 505 kts | 90° |
| 2026-04-20 22:01 | 41.76340 | -80.20383 | 33378 ft | 504 kts | 90° |
| 2026-04-20 22:01 | 41.75368 | -80.10887 | 33362 ft | 504 kts | 90° |
| 2026-04-20 22:02 | 41.74409 | -80.01579 | 33370 ft | 504 kts | 90° |
| 2026-04-20 22:02 | 41.73433 | -79.92224 | 33384 ft | 504 kts | 90° |
| 2026-04-20 22:03 | 41.72453 | -79.82923 | 33389 ft | 504 kts | 90° |
| 2026-04-20 22:03 | 41.71467 | -79.73633 | 33392 ft | 504 kts | 90° |
| 2026-04-20 22:04 | 41.70483 | -79.64330 | 33292 ft | 505 kts | 90° |
| 2026-04-20 22:04 | 41.69468 | -79.54988 | 33379 ft | 503 kts | 90° |
| 2026-04-20 22:05 | 41.68449 | -79.45660 | 33389 ft | 503 kts | 90° |
| 2026-04-20 22:05 | 41.67412 | -79.36182 | 33390 ft | 505 kts | 91° |
| 2026-04-20 22:06 | 41.66382 | -79.26836 | 33379 ft | 506 kts | 91° |
| 2026-04-20 22:06 | 41.65346 | -79.17517 | 33375 ft | 506 kts | 91° |
| 2026-04-20 22:07 | 41.64461 | -79.09596 | 33368 ft | 506 kts | 91° |
| 2026-04-20 22:07 | 41.64109 | -79.06456 | 33365 ft | 506 kts | 92° |
| 2026-04-20 22:08 | 41.63370 | -78.99877 | 33360 ft | 506 kts | 92° |
| 2026-04-20 22:08 | 41.62304 | -78.90451 | 33348 ft | 506 kts | 92° |
| 2026-04-20 22:09 | 41.61179 | -78.80579 | 33333 ft | 507 kts | 93° |
| 2026-04-20 22:09 | 41.60110 | -78.71278 | 33330 ft | 507 kts | 93° |
| 2026-04-20 22:10 | 41.59031 | -78.61949 | 33329 ft | 507 kts | 94° |
| 2026-04-20 22:10 | 41.57947 | -78.52650 | 33337 ft | 507 kts | 94° |
| 2026-04-20 22:11 | 41.56832 | -78.43150 | 33322 ft | 508 kts | 94° |
| 2026-04-20 22:11 | 41.55724 | -78.33782 | 33337 ft | 507 kts | 94° |
| 2026-04-20 22:12 | 41.54601 | -78.24349 | 33346 ft | 508 kts | 95° |
| 2026-04-20 22:12 | 41.53702 | -78.16846 | 33348 ft | 508 kts | 95° |
| 2026-04-20 22:13 | 41.52568 | -78.07438 | 33327 ft | 508 kts | 96° |
| 2026-04-20 22:13 | 41.51433 | -77.98092 | 33335 ft | 509 kts | 96° |
| 2026-04-20 22:14 | 41.50191 | -77.88719 | 33324 ft | 510 kts | 98° |
| 2026-04-20 22:14 | 41.48827 | -77.79308 | 33332 ft | 510 kts | 98° |
| 2026-04-20 22:15 | 41.47473 | -77.69992 | 33326 ft | 511 kts | 98° |
| 2026-04-20 22:15 | 41.46134 | -77.60688 | 33324 ft | 511 kts | 98° |
| 2026-04-20 22:16 | 41.44794 | -77.51380 | 33314 ft | 511 kts | 99° |
| 2026-04-20 22:16 | 41.43435 | -77.41993 | 33326 ft | 512 kts | 99° |
| 2026-04-20 22:17 | 41.42072 | -77.32661 | 33324 ft | 512 kts | 99° |
| 2026-04-20 22:17 | 41.40705 | -77.23350 | 33313 ft | 513 kts | 100° |
| 2026-04-20 22:18 | 41.39326 | -77.14016 | 33311 ft | 514 kts | 100° |
| 2026-04-20 22:18 | 41.37939 | -77.04674 | 33315 ft | 514 kts | 101° |
| 2026-04-20 22:19 | 41.36551 | -76.95386 | 33319 ft | 501 kts | 101° |
| 2026-04-20 22:19 | 41.35207 | -76.86436 | 33057 ft | 502 kts | 101° |
| 2026-04-20 22:19 | 41.34498 | -76.81730 | 32268 ft | 520 kts | 101° |
| 2026-04-20 22:20 | 41.33767 | -76.76999 | 31447 ft | 521 kts | 104° |
| 2026-04-20 22:20 | 41.32750 | -76.72372 | 30582 ft | 521 kts | 109° |
| 2026-04-20 22:20 | 41.31532 | -76.67832 | 29495 ft | 522 kts | 111° |
| 2026-04-20 22:20 | 41.30239 | -76.63323 | 28554 ft | 519 kts | 112° |
| 2026-04-20 22:21 | 41.28956 | -76.58863 | 27574 ft | 516 kts | 112° |
| 2026-04-20 22:21 | 41.27694 | -76.54378 | 26552 ft | 516 kts | 112° |
| 2026-04-20 22:21 | 41.26472 | -76.49923 | 25856 ft | 509 kts | 112° |
| 2026-04-20 22:21 | 41.25281 | -76.45509 | 25126 ft | 503 kts | 112° |
| 2026-04-20 22:22 | 41.24113 | -76.41154 | 24415 ft | 497 kts | 112° |
| 2026-04-20 22:22 | 41.22960 | -76.36859 | 23666 ft | 491 kts | 112° |
| 2026-04-20 22:22 | 41.21827 | -76.32657 | 22861 ft | 486 kts | 112° |
| 2026-04-20 22:22 | 41.20696 | -76.28478 | 22142 ft | 478 kts | 112° |
| 2026-04-20 22:23 | 41.19575 | -76.24345 | 21447 ft | 471 kts | 112° |
| 2026-04-20 22:23 | 41.18473 | -76.20293 | 20767 ft | 465 kts | 112° |
| 2026-04-20 22:23 | 41.17378 | -76.16278 | 20126 ft | 458 kts | 112° |
| 2026-04-20 22:23 | 41.16283 | -76.12262 | 19427 ft | 453 kts | 112° |
| 2026-04-20 22:24 | 41.15216 | -76.08359 | 18783 ft | 448 kts | 111° |
| 2026-04-20 22:24 | 41.14163 | -76.04509 | 18468 ft | 440 kts | 111° |
| 2026-04-20 22:24 | 41.13130 | -76.00742 | 18326 ft | 427 kts | 112° |
| 2026-04-20 22:24 | 41.12133 | -75.97109 | 18278 ft | 409 kts | 112° |
| 2026-04-20 22:25 | 41.11179 | -75.93633 | 18273 ft | 392 kts | 112° |
| 2026-04-20 22:25 | 41.10264 | -75.90307 | 18085 ft | 380 kts | 112° |
| 2026-04-20 22:25 | 41.09340 | -75.86968 | 16978 ft | 393 kts | 112° |
| 2026-04-20 22:25 | 41.08378 | -75.83501 | 15767 ft | 409 kts | 111° |
| 2026-04-20 22:26 | 41.07397 | -75.79954 | 15563 ft | 402 kts | 111° |
| 2026-04-20 22:26 | 41.06423 | -75.76437 | 15206 ft | 411 kts | 111° |
| 2026-04-20 22:26 | 41.05424 | -75.72833 | 14855 ft | 416 kts | 111° |
| 2026-04-20 22:27 | 41.03415 | -75.65590 | 14117 ft | 411 kts | 111° |
| 2026-04-20 22:27 | 41.02446 | -75.62106 | 13738 ft | 408 kts | 111° |
| 2026-04-20 22:27 | 41.01466 | -75.58591 | 13386 ft | 405 kts | 111° |
| 2026-04-20 22:27 | 41.00491 | -75.55099 | 13043 ft | 403 kts | 111° |
| 2026-04-20 22:28 | 40.99523 | -75.51637 | 12697 ft | 401 kts | 111° |
| 2026-04-20 22:28 | 40.98546 | -75.48147 | 12368 ft | 399 kts | 111° |
| 2026-04-20 22:28 | 40.97894 | -75.45822 | 12141 ft | 398 kts | 111° |
| 2026-04-20 22:28 | 40.96635 | -75.41330 | 11709 ft | 386 kts | 111° |
| 2026-04-20 22:29 | 40.96008 | -75.39097 | 11485 ft | 379 kts | 111° |
| 2026-04-20 22:29 | 40.95103 | -75.35876 | 11179 ft | 370 kts | 110° |
| 2026-04-20 22:29 | 40.94213 | -75.32712 | 10875 ft | 361 kts | 110° |
| 2026-04-20 22:29 | 40.93348 | -75.29641 | 10586 ft | 353 kts | 110° |
| 2026-04-20 22:30 | 40.92497 | -75.26625 | 10309 ft | 346 kts | 110° |
| 2026-04-20 22:30 | 40.91663 | -75.23672 | 10018 ft | 340 kts | 110° |
| 2026-04-20 22:30 | 40.90846 | -75.20779 | 9938 ft | 326 kts | 110° |
| 2026-04-20 22:30 | 40.90076 | -75.18055 | 9909 ft | 311 kts | 110° |
| 2026-04-20 22:31 | 40.89333 | -75.15434 | 9858 ft | 298 kts | 110° |
| 2026-04-20 22:31 | 40.88617 | -75.12910 | 9689 ft | 289 kts | 110° |
| 2026-04-20 22:31 | 40.87908 | -75.10413 | 9210 ft | 286 kts | 110° |
| 2026-04-20 22:31 | 40.87201 | -75.07906 | 8680 ft | 286 kts | 110° |
| 2026-04-20 22:32 | 40.86510 | -75.05458 | 8301 ft | 281 kts | 110° |
| 2026-04-20 22:32 | 40.85832 | -75.03057 | 8040 ft | 277 kts | 110° |
| 2026-04-20 22:32 | 40.85161 | -75.00678 | 7806 ft | 277 kts | 110° |
| 2026-04-20 22:32 | 40.84478 | -74.98261 | 7564 ft | 278 kts | 109° |
| 2026-04-20 22:33 | 40.83787 | -74.95822 | 7326 ft | 280 kts | 109° |
| 2026-04-20 22:33 | 40.83112 | -74.93442 | 7113 ft | 280 kts | 109° |
| 2026-04-20 22:33 | 40.82432 | -74.90991 | 7023 ft | 281 kts | 108° |
| 2026-04-20 22:33 | 40.81767 | -74.88591 | 6994 ft | 274 kts | 109° |
| 2026-04-20 22:34 | 40.81109 | -74.86291 | 6989 ft | 261 kts | 110° |
| 2026-04-20 22:34 | 40.80481 | -74.84113 | 6977 ft | 248 kts | 110° |
| 2026-04-20 22:34 | 40.79875 | -74.82021 | 6983 ft | 242 kts | 109° |
| 2026-04-20 22:34 | 40.79265 | -74.79917 | 7017 ft | 253 kts | 110° |
| 2026-04-20 22:35 | 40.78607 | -74.77631 | 7046 ft | 276 kts | 110° |
| 2026-04-20 22:35 | 40.77920 | -74.75241 | 7008 ft | 280 kts | 110° |
| 2026-04-20 22:35 | 40.77229 | -74.72836 | 7001 ft | 280 kts | 110° |
| 2026-04-20 22:35 | 40.76541 | -74.70436 | 7006 ft | 280 kts | 110° |
| 2026-04-20 22:36 | 40.75854 | -74.68033 | 6994 ft | 280 kts | 110° |
| 2026-04-20 22:36 | 40.75148 | -74.65572 | 6995 ft | 280 kts | 112° |
| 2026-04-20 22:36 | 40.74058 | -74.63426 | 6983 ft | 279 kts | 140° |
| 2026-04-20 22:36 | 40.72416 | -74.62060 | 7017 ft | 275 kts | 156° |
| 2026-04-20 22:37 | 40.70686 | -74.60950 | 6999 ft | 276 kts | 157° |
| 2026-04-20 22:37 | 40.68939 | -74.59866 | 7009 ft | 277 kts | 158° |
| 2026-04-20 22:37 | 40.67193 | -74.58787 | 6998 ft | 278 kts | 158° |
| 2026-04-20 22:37 | 40.65444 | -74.57709 | 6984 ft | 276 kts | 158° |
| 2026-04-20 22:38 | 40.63718 | -74.56645 | 6783 ft | 273 kts | 158° |
| 2026-04-20 22:38 | 40.61967 | -74.55570 | 6426 ft | 274 kts | 158° |
| 2026-04-20 22:38 | 40.60224 | -74.54501 | 6062 ft | 274 kts | 158° |
| 2026-04-20 22:38 | 40.58490 | -74.53443 | 5736 ft | 273 kts | 158° |
| 2026-04-20 22:39 | 40.56769 | -74.52403 | 5439 ft | 271 kts | 158° |
| 2026-04-20 22:39 | 40.55050 | -74.51370 | 5136 ft | 270 kts | 158° |
| 2026-04-20 22:39 | 40.53347 | -74.50349 | 5016 ft | 269 kts | 158° |
| 2026-04-20 22:39 | 40.51636 | -74.49329 | 5005 ft | 271 kts | 158° |
| 2026-04-20 22:40 | 40.49885 | -74.48283 | 5002 ft | 270 kts | 158° |
| 2026-04-20 22:40 | 40.48197 | -74.47275 | 4976 ft | 269 kts | 158° |
| 2026-04-20 22:40 | 40.46415 | -74.46209 | 4999 ft | 269 kts | 158° |
| 2026-04-20 22:40 | 40.44725 | -74.45194 | 4991 ft | 270 kts | 158° |
| 2026-04-20 22:41 | 40.43569 | -74.44500 | 4998 ft | 269 kts | 158° |
| 2026-04-20 22:41 | 40.41841 | -74.43459 | 5011 ft | 269 kts | 158° |
| 2026-04-20 22:41 | 40.40210 | -74.42244 | 4977 ft | 272 kts | 139° |
| 2026-04-20 22:41 | 40.39131 | -74.40238 | 5002 ft | 270 kts | 109° |
| 2026-04-20 22:42 | 40.38941 | -74.37846 | 4993 ft | 264 kts | 73° |
| 2026-04-20 22:42 | 40.39786 | -74.35801 | 5007 ft | 251 kts | 37° |
| 2026-04-20 22:42 | 40.41191 | -74.34498 | 5009 ft | 247 kts | 26° |
| 2026-04-20 22:42 | 40.42681 | -74.33407 | 4771 ft | 244 kts | 23° |
| 2026-04-20 22:43 | 40.44195 | -74.32413 | 4415 ft | 245 kts | 21° |
| 2026-04-20 22:43 | 40.45751 | -74.31423 | 4108 ft | 245 kts | 22° |
| 2026-04-20 22:43 | 40.47261 | -74.30465 | 3922 ft | 241 kts | 22° |
| 2026-04-20 22:43 | 40.48774 | -74.29501 | 3858 ft | 229 kts | 22° |
| 2026-04-20 22:44 | 40.50157 | -74.28619 | 3779 ft | 215 kts | 21° |
| 2026-04-20 22:44 | 40.51496 | -74.27766 | 3530 ft | 209 kts | 21° |
| 2026-04-20 22:44 | 40.52788 | -74.26945 | 3291 ft | 203 kts | 21° |
| 2026-04-20 22:44 | 40.54041 | -74.26148 | 3040 ft | 195 kts | 21° |
| 2026-04-20 22:45 | 40.55255 | -74.25375 | 2758 ft | 186 kts | 20° |
| 2026-04-20 22:45 | 40.56384 | -74.24656 | 2502 ft | 177 kts | 21° |
| 2026-04-20 22:45 | 40.57458 | -74.23972 | 2299 ft | 165 kts | 20° |
| 2026-04-20 22:45 | 40.58495 | -74.23311 | 2115 ft | 148 kts | 21° |
| 2026-04-20 22:46 | 40.59400 | -74.22736 | 1877 ft | 138 kts | 20° |
| 2026-04-20 22:46 | 40.60276 | -74.22180 | 1726 ft | 141 kts | 20° |
| 2026-04-20 22:46 | 40.61195 | -74.21598 | 1533 ft | 145 kts | 21° |
| 2026-04-20 22:46 | 40.62138 | -74.20997 | 1315 ft | 143 kts | 21° |
| 2026-04-20 22:47 | 40.63024 | -74.20433 | 1114 ft | 139 kts | 21° |
| 2026-04-20 22:47 | 40.63610 | -74.20061 | 978 ft | 137 kts | 21° |
| 2026-04-20 22:47 | 40.64480 | -74.19506 | 821 ft | 138 kts | 21° |
| 2026-04-20 22:47 | 40.65351 | -74.18952 | 650 ft | 137 kts | 20° |
| 2026-04-20 22:48 | 40.66194 | -74.18417 | 482 ft | 131 kts | 22° |
| 2026-04-20 22:48 | 40.67023 | -74.17863 | 263 ft | 134 kts | 18° |
| 2026-04-20 22:48 | 40.67877 | -74.17341 | 89 ft | 132 kts | 17° |
| 2026-04-20 22:48 | 40.68643 | -74.16870 | 21 ft | 106 kts | 26° |
| 2026-04-20 22:49 | 40.69114 | -74.16566 | 22 ft | 43 kts | 26° |
| 2026-04-20 22:49 | 40.69275 | -74.16465 | 23 ft | 23 kts | 18° |
| 2026-04-20 22:49 | 40.69430 | -74.16455 | 26 ft | 21 kts | 354° |
| 2026-04-20 22:49 | 40.69484 | -74.16470 | 24 ft | 4 kts | 336° |
| 2026-04-20 22:50 | 40.69503 | -74.16518 | 22 ft | 7 kts | 266° |
| 2026-04-20 22:50 | 40.69481 | -74.16554 | 22 ft | 0 kts | 209° |
| 2026-04-20 22:54 | 40.69480 | -74.16555 | 22 ft | 1 kts | 205° |
| 2026-04-20 22:55 | 40.69447 | -74.16575 | 22 ft | 7 kts | 205° |
| 2026-04-20 22:55 | 40.69421 | -74.16626 | 23 ft | 7 kts | 261° |
| 2026-04-20 22:55 | 40.69430 | -74.16687 | -4 ft | 7 kts | 288° |
| 2026-04-20 22:55 | 40.69446 | -74.16744 | 23 ft | 7 kts | 294° |
| 2026-04-20 22:56 | 40.69464 | -74.16794 | 22 ft | 7 kts | 297° |
| 2026-04-20 22:56 | 40.69472 | -74.16850 | 21 ft | 6 kts | 255° |
| 2026-04-20 22:56 | 40.69442 | -74.16893 | 22 ft | 6 kts | 213° |
| 2026-04-20 22:56 | 40.69403 | -74.16920 | 21 ft | 6 kts | 207° |
| 2026-04-20 22:57 | 40.69364 | -74.16946 | 22 ft | 7 kts | 206° |
| 2026-04-20 22:57 | 40.69277 | -74.17004 | 21 ft | 20 kts | 205° |
| 2026-04-20 22:57 | 40.69123 | -74.17099 | 21 ft | 28 kts | 205° |
| 2026-04-20 22:57 | 40.68950 | -74.17207 | 22 ft | 28 kts | 205° |
| 2026-04-20 22:58 | 40.68780 | -74.17315 | 22 ft | 25 kts | 206° |
| 2026-04-20 22:58 | 40.68629 | -74.17411 | 22 ft | 22 kts | 206° |
| 2026-04-20 22:58 | 40.68494 | -74.17497 | 23 ft | 21 kts | 206° |
| 2026-04-20 22:58 | 40.68419 | -74.17605 | 22 ft | 14 kts | 277° |
| 2026-04-20 22:59 | 40.68464 | -74.17711 | 21 ft | 13 kts | 301° |
| 2026-04-20 22:59 | 40.68505 | -74.17816 | 22 ft | 13 kts | 296° |
| 2026-04-20 22:59 | 40.68542 | -74.17919 | 21 ft | 12 kts | 296° |
| 2026-04-20 22:59 | 40.68568 | -74.18002 | 21 ft | 9 kts | 290° |
| 2026-04-20 23:00 | 40.68575 | -74.18083 | 21 ft | 9 kts | 264° |
| 2026-04-20 23:00 | 40.68542 | -74.18140 | 21 ft | 8 kts | 211° |
| 2026-04-20 23:00 | 40.68495 | -74.18190 | 22 ft | 7 kts | 243° |
| 2026-04-20 23:00 | 40.68497 | -74.18264 | 21 ft | 10 kts | 278° |
| 2026-04-20 23:01 | 40.68507 | -74.18379 | 21 ft | 14 kts | 275° |
| 2026-04-20 23:01 | 40.68512 | -74.18455 | 21 ft | 0 kts | 271° |
| 2026-04-20 23:02 | 40.68511 | -74.18460 | 21 ft | 3 kts | 266° |
| 2026-04-20 23:02 | 40.68497 | -74.18489 | 23 ft | 3 kts | 210° |
| 2026-04-20 23:02 | 40.68471 | -74.18497 | 21 ft | 5 kts | 188° |
| 2026-04-20 23:03 | 40.68453 | -74.18500 | 21 ft | 1 kts | 186° |
| 2026-04-20 23:03 | 40.68450 | -74.18500 | 21 ft | 0 kts | 186° |